sensor_id;sensor_type;location;lat;lon;timestamp;pressure;altitude;pressure_sealevel;temperature;humidity
59767;BME280;46248;58.364;25.582;2022-12-16T00:02:21;100193.50;;;-7.84;89.69
59767;BME280;46248;58.364;25.582;2022-12-16T00:05:42;100195.22;;;-7.82;89.70
59767;BME280;46248;58.364;25.582;2022-12-16T00:09:04;100186.00;;;-7.77;90.02
59767;BME280;46248;58.364;25.582;2022-12-16T00:12:26;100202.09;;;-7.75;89.91
59767;BME280;46248;58.364;25.582;2022-12-16T00:15:48;100206.41;;;-7.73;90.19
59767;BME280;46248;58.364;25.582;2022-12-16T00:19:14;100197.91;;;-7.73;89.96
59767;BME280;46248;58.364;25.582;2022-12-16T00:22:36;100209.03;;;-7.68;90.38
59767;BME280;46248;58.364;25.582;2022-12-16T00:25:58;100209.03;;;-7.67;90.40
59767;BME280;46248;58.364;25.582;2022-12-16T00:29:20;100208.28;;;-7.61;90.39
59767;BME280;46248;58.364;25.582;2022-12-16T00:32:42;100210.88;;;-7.58;89.93
59767;BME280;46248;58.364;25.582;2022-12-16T00:36:06;100218.53;;;-7.56;90.25
59767;BME280;46248;58.364;25.582;2022-12-16T00:39:28;100234.72;;;-7.53;90.16
59767;BME280;46248;58.364;25.582;2022-12-16T00:42:50;100235.56;;;-7.52;90.16
59767;BME280;46248;58.364;25.582;2022-12-16T00:46:14;100228.78;;;-7.52;90.11
59767;BME280;46248;58.364;25.582;2022-12-16T00:49:36;100221.16;;;-7.52;90.20
59767;BME280;46248;58.364;25.582;2022-12-16T00:52:59;100224.66;;;-7.47;90.54
59767;BME280;46248;58.364;25.582;2022-12-16T00:56:22;100231.47;;;-7.44;90.67
59767;BME280;46248;58.364;25.582;2022-12-16T00:59:44;100219.63;;;-7.44;90.32
59767;BME280;46248;58.364;25.582;2022-12-16T01:03:06;100216.09;;;-7.50;90.67
59767;BME280;46248;58.364;25.582;2022-12-16T01:06:28;100225.50;;;-7.46;91.03
59767;BME280;46248;58.364;25.582;2022-12-16T01:09:52;100227.28;;;-7.41;91.01
59767;BME280;46248;58.364;25.582;2022-12-16T01:13:14;100231.59;;;-7.38;91.45
59767;BME280;46248;58.364;25.582;2022-12-16T01:16:35;100234.13;;;-7.37;91.75
59767;BME280;46248;58.364;25.582;2022-12-16T01:19:57;100224.81;;;-7.36;91.99
59767;BME280;46248;58.364;25.582;2022-12-16T01:23:19;100245.25;;;-7.31;91.61
59767;BME280;46248;58.364;25.582;2022-12-16T01:26:43;100252.09;;;-7.27;91.90
59767;BME280;46248;58.364;25.582;2022-12-16T01:30:06;100244.34;;;-7.33;92.29
59767;BME280;46248;58.364;25.582;2022-12-16T01:33:29;100257.19;;;-7.27;92.56
59767;BME280;46248;58.364;25.582;2022-12-16T01:36:52;100265.72;;;-7.25;92.92
59767;BME280;46248;58.364;25.582;2022-12-16T01:40:16;100263.16;;;-7.24;93.04
59767;BME280;46248;58.364;25.582;2022-12-16T01:43:42;100259.72;;;-7.27;93.01
59767;BME280;46248;58.364;25.582;2022-12-16T01:47:04;100271.69;;;-7.22;93.50
59767;BME280;46248;58.364;25.582;2022-12-16T01:50:27;100279.28;;;-7.23;93.57
59767;BME280;46248;58.364;25.582;2022-12-16T01:53:54;100282.78;;;-7.18;93.78
59767;BME280;46248;58.364;25.582;2022-12-16T01:57:21;100289.63;;;-7.14;93.98
59767;BME280;46248;58.364;25.582;2022-12-16T02:00:46;100289.63;;;-7.14;93.42
59767;BME280;46248;58.364;25.582;2022-12-16T02:04:10;100282.88;;;-7.13;94.09
59767;BME280;46248;58.364;25.582;2022-12-16T02:07:32;100279.38;;;-7.19;93.79
59767;BME280;46248;58.364;25.582;2022-12-16T02:11:13;100283.66;;;-7.16;94.02
59767;BME280;46248;58.364;25.582;2022-12-16T02:14:53;100283.72;;;-7.13;94.28
59767;BME280;46248;58.364;25.582;2022-12-16T02:18:26;100285.47;;;-7.10;94.12
59767;BME280;46248;58.364;25.582;2022-12-16T02:22:00;100293.16;;;-7.07;93.37
59767;BME280;46248;58.364;25.582;2022-12-16T02:25:53;100299.13;;;-7.04;93.24
59767;BME280;46248;58.364;25.582;2022-12-16T02:29:49;100302.56;;;-7.02;92.97
59767;BME280;46248;58.364;25.582;2022-12-16T02:37:25;100306.88;;;-6.96;92.60
59767;BME280;46248;58.364;25.582;2022-12-16T02:40:56;100298.38;;;-6.97;92.45
59767;BME280;46248;58.364;25.582;2022-12-16T02:44:28;100311.22;;;-6.92;92.31
59767;BME280;46248;58.364;25.582;2022-12-16T02:47:54;100301.78;;;-6.98;92.38
59767;BME280;46248;58.364;25.582;2022-12-16T02:51:17;100303.47;;;-6.98;91.86
59767;BME280;46248;58.364;25.582;2022-12-16T02:54:41;100282.88;;;-7.13;91.73
59767;BME280;46248;58.364;25.582;2022-12-16T02:58:09;100313.69;;;-6.95;91.28
59767;BME280;46248;58.364;25.582;2022-12-16T03:01:40;100315.41;;;-6.96;91.00
59767;BME280;46248;58.364;25.582;2022-12-16T03:05:08;100313.66;;;-6.98;90.97
59767;BME280;46248;58.364;25.582;2022-12-16T03:08:36;100327.25;;;-6.96;90.85
59767;BME280;46248;58.364;25.582;2022-12-16T03:12:04;100330.63;;;-6.97;90.85
59767;BME280;46248;58.364;25.582;2022-12-16T03:15:31;100331.47;;;-6.98;90.51
59767;BME280;46248;58.364;25.582;2022-12-16T03:18:58;100339.97;;;-6.96;90.56
59767;BME280;46248;58.364;25.582;2022-12-16T03:22:24;100323.69;;;-7.07;91.06
59767;BME280;46248;58.364;25.582;2022-12-16T03:25:49;100335.66;;;-7.00;90.93
59767;BME280;46248;58.364;25.582;2022-12-16T03:29:22;100341.66;;;-6.98;90.90
59767;BME280;46248;58.364;25.582;2022-12-16T03:32:52;100347.59;;;-6.96;90.56
59767;BME280;46248;58.364;25.582;2022-12-16T03:36:20;100347.59;;;-6.96;91.01
59767;BME280;46248;58.364;25.582;2022-12-16T03:39:46;100346.78;;;-6.95;90.66
59767;BME280;46248;58.364;25.582;2022-12-16T03:43:09;100363.81;;;-6.91;90.71
59767;BME280;46248;58.364;25.582;2022-12-16T03:46:35;100358.72;;;-6.91;90.70
59767;BME280;46248;58.364;25.582;2022-12-16T03:49:57;100360.47;;;-6.88;90.62
59767;BME280;46248;58.364;25.582;2022-12-16T03:53:19;100352.84;;;-6.87;90.87
59767;BME280;46248;58.364;25.582;2022-12-16T03:56:43;100349.34;;;-6.94;90.81
59767;BME280;46248;58.364;25.582;2022-12-16T04:00:06;100363.91;;;-6.85;90.64
59767;BME280;46248;58.364;25.582;2022-12-16T04:03:33;100367.25;;;-6.87;90.90
59767;BME280;46248;58.364;25.582;2022-12-16T04:06:56;100381.72;;;-6.86;90.45
59767;BME280;46248;58.364;25.582;2022-12-16T04:10:35;100397.06;;;-6.83;90.95
59767;BME280;46248;58.364;25.582;2022-12-16T04:14:14;100395.31;;;-6.84;91.30
59767;BME280;46248;58.364;25.582;2022-12-16T04:17:54;100397.00;;;-6.85;91.22
59767;BME280;46248;58.364;25.582;2022-12-16T04:21:35;100402.16;;;-6.83;91.04
59767;BME280;46248;58.364;25.582;2022-12-16T04:25:17;100393.63;;;-6.85;91.56
59767;BME280;46248;58.364;25.582;2022-12-16T04:28:40;100405.50;;;-6.84;91.32
59767;BME280;46248;58.364;25.582;2022-12-16T04:32:03;100411.44;;;-6.85;91.53
59767;BME280;46248;58.364;25.582;2022-12-16T04:35:25;100377.13;;;-7.07;91.94
59767;BME280;46248;58.364;25.582;2022-12-16T04:39:05;100414.78;;;-6.88;92.36
59767;BME280;46248;58.364;25.582;2022-12-16T04:42:45;100410.47;;;-6.92;92.13
59767;BME280;46248;58.364;25.582;2022-12-16T04:46:25;100423.19;;;-6.92;92.50
59767;BME280;46248;58.364;25.582;2022-12-16T04:50:05;100406.97;;;-6.99;92.40
59767;BME280;46248;58.364;25.582;2022-12-16T04:53:44;100429.09;;;-6.95;93.16
59767;BME280;46248;58.364;25.582;2022-12-16T04:57:25;100424.00;;;-6.95;93.01
59767;BME280;46248;58.364;25.582;2022-12-16T05:01:05;100431.66;;;-6.93;93.55
59767;BME280;46248;58.364;25.582;2022-12-16T05:04:44;100437.63;;;-6.93;93.20
59767;BME280;46248;58.364;25.582;2022-12-16T05:08:38;100443.41;;;-7.00;93.59
59767;BME280;46248;58.364;25.582;2022-12-16T05:12:17;100458.75;;;-6.97;93.38
59767;BME280;46248;58.364;25.582;2022-12-16T05:15:58;100466.38;;;-6.97;93.18
59767;BME280;46248;58.364;25.582;2022-12-16T05:19:37;100478.19;;;-7.00;93.42
59767;BME280;46248;58.364;25.582;2022-12-16T05:23:17;100473.94;;;-7.00;93.30
59767;BME280;46248;58.364;25.582;2022-12-16T05:26:56;100476.41;;;-7.04;93.09
59767;BME280;46248;58.364;25.582;2022-12-16T05:30:36;100472.91;;;-7.09;92.98
59767;BME280;46248;58.364;25.582;2022-12-16T05:34:25;100479.72;;;-7.08;92.62
59767;BME280;46248;58.364;25.582;2022-12-16T05:38:04;100489.88;;;-7.10;92.81
59767;BME280;46248;58.364;25.582;2022-12-16T05:41:43;100493.22;;;-7.11;92.70
59767;BME280;46248;58.364;25.582;2022-12-16T05:45:34;100498.31;;;-7.11;92.57
59767;BME280;46248;58.364;25.582;2022-12-16T05:49:14;100508.31;;;-7.20;92.25
59767;BME280;46248;58.364;25.582;2022-12-16T05:52:54;100511.69;;;-7.21;92.33
59767;BME280;46248;58.364;25.582;2022-12-16T05:56:33;100509.81;;;-7.30;91.96
59767;BME280;46248;58.364;25.582;2022-12-16T06:00:14;100515.75;;;-7.31;92.25
59767;BME280;46248;58.364;25.582;2022-12-16T06:03:53;100516.47;;;-7.37;91.88
59767;BME280;46248;58.364;25.582;2022-12-16T06:07:37;100493.22;;;-7.53;92.25
59767;BME280;46248;58.364;25.582;2022-12-16T06:11:18;100535.97;;;-7.35;92.41
59767;BME280;46248;58.364;25.582;2022-12-16T06:14:57;100545.34;;;-7.34;92.46
59767;BME280;46248;58.364;25.582;2022-12-16T06:18:37;100540.22;;;-7.36;92.87
59767;BME280;46248;58.364;25.582;2022-12-16T06:22:16;100550.44;;;-7.34;92.68
59767;BME280;46248;58.364;25.582;2022-12-16T06:25:56;100537.53;;;-7.44;92.87
59767;BME280;46248;58.364;25.582;2022-12-16T06:29:36;100570.03;;;-7.30;92.72
59767;BME280;46248;58.364;25.582;2022-12-16T06:33:15;100581.84;;;-7.32;92.38
59767;BME280;46248;58.364;25.582;2022-12-16T06:36:55;100579.13;;;-7.40;92.52
59767;BME280;46248;58.364;25.582;2022-12-16T06:40:34;100557.41;;;-7.64;91.83
59767;BME280;46248;58.364;25.582;2022-12-16T06:44:14;100596.75;;;-7.48;91.91
59767;BME280;46248;58.364;25.582;2022-12-16T06:47:54;100612.63;;;-7.58;92.00
59767;BME280;46248;58.364;25.582;2022-12-16T06:51:33;100621.03;;;-7.62;91.92
59767;BME280;46248;58.364;25.582;2022-12-16T06:55:14;100622.59;;;-7.66;91.83
59767;BME280;46248;58.364;25.582;2022-12-16T06:58:53;100637.84;;;-7.67;91.71
59767;BME280;46248;58.364;25.582;2022-12-16T07:02:35;100644.25;;;-7.81;91.73
59767;BME280;46248;58.364;25.582;2022-12-16T07:06:30;100644.00;;;-7.92;91.91
59767;BME280;46248;58.364;25.582;2022-12-16T07:10:10;100656.50;;;-8.00;91.80
59767;BME280;46248;58.364;25.582;2022-12-16T07:13:50;100662.94;;;-8.13;91.41
59767;BME280;46248;58.364;25.582;2022-12-16T07:17:29;100655.25;;;-8.14;91.90
59767;BME280;46248;58.364;25.582;2022-12-16T07:21:05;100631.78;;;-8.39;91.55
59767;BME280;46248;58.364;25.582;2022-12-16T07:24:45;100677.78;;;-8.26;91.23
59767;BME280;46248;58.364;25.582;2022-12-16T07:28:25;100693.97;;;-8.23;91.02
59767;BME280;46248;58.364;25.582;2022-12-16T07:32:04;100703.16;;;-8.28;89.65
59767;BME280;46248;58.364;25.582;2022-12-16T07:35:43;100692.78;;;-8.36;89.46
59767;BME280;46248;58.364;25.582;2022-12-16T07:39:23;100702.22;;;-8.32;88.72
59767;BME280;46248;58.364;25.582;2022-12-16T07:43:15;100699.22;;;-8.48;87.55
59767;BME280;46248;58.364;25.582;2022-12-16T07:46:55;100700.84;;;-8.52;87.40
59767;BME280;46248;58.364;25.582;2022-12-16T07:50:35;100721.97;;;-8.53;87.31
59767;BME280;46248;58.364;25.582;2022-12-16T07:54:12;100716.72;;;-8.59;87.38
59767;BME280;46248;58.364;25.582;2022-12-16T07:57:51;100725.31;;;-8.54;87.68
59767;BME280;46248;58.364;25.582;2022-12-16T08:01:31;100722.00;;;-8.51;87.66
59767;BME280;46248;58.364;25.582;2022-12-16T08:05:10;100720.19;;;-8.56;87.17
59767;BME280;46248;58.364;25.582;2022-12-16T08:08:49;100722.75;;;-8.54;87.90
59767;BME280;46248;58.364;25.582;2022-12-16T08:12:28;100732.06;;;-8.55;88.53
59767;BME280;46248;58.364;25.582;2022-12-16T08:16:08;100731.13;;;-8.58;88.67
59767;BME280;46248;58.364;25.582;2022-12-16T08:19:49;100734.56;;;-8.56;89.40
59767;BME280;46248;58.364;25.582;2022-12-16T08:23:28;100742.56;;;-8.44;89.82
59767;BME280;46248;58.364;25.582;2022-12-16T08:27:07;100743.50;;;-8.40;90.09
59767;BME280;46248;58.364;25.582;2022-12-16T08:30:49;100752.81;;;-8.39;90.01
59767;BME280;46248;58.364;25.582;2022-12-16T08:34:28;100767.97;;;-8.42;89.70
59767;BME280;46248;58.364;25.582;2022-12-16T08:38:09;100755.84;;;-8.51;89.69
59767;BME280;46248;58.364;25.582;2022-12-16T08:41:48;100755.06;;;-8.50;90.18
59767;BME280;46248;58.364;25.582;2022-12-16T08:45:28;100758.47;;;-8.49;90.05
59767;BME280;46248;58.364;25.582;2022-12-16T08:49:08;100767.97;;;-8.42;90.06
59767;BME280;46248;58.364;25.582;2022-12-16T08:52:47;100770.50;;;-8.42;90.06
59767;BME280;46248;58.364;25.582;2022-12-16T08:56:37;100784.81;;;-8.46;90.12
59767;BME280;46248;58.364;25.582;2022-12-16T09:00:16;100790.78;;;-8.44;89.97
59767;BME280;46248;58.364;25.582;2022-12-16T09:03:55;100796.81;;;-8.40;90.32
59767;BME280;46248;58.364;25.582;2022-12-16T09:07:34;100805.38;;;-8.35;90.22
59767;BME280;46248;58.364;25.582;2022-12-16T09:11:15;100789.72;;;-8.50;90.13
59767;BME280;46248;58.364;25.582;2022-12-16T09:14:56;100808.91;;;-8.32;89.85
59767;BME280;46248;58.364;25.582;2022-12-16T09:18:35;100810.81;;;-8.23;90.19
59767;BME280;46248;58.364;25.582;2022-12-16T09:22:15;100820.31;;;-8.17;90.17
59767;BME280;46248;58.364;25.582;2022-12-16T09:25:54;100816.41;;;-8.06;89.04
59767;BME280;46248;58.364;25.582;2022-12-16T09:29:33;100823.38;;;-7.99;89.17
59767;BME280;46248;58.364;25.582;2022-12-16T09:33:14;100821.00;;;-7.93;88.76
59767;BME280;46248;58.364;25.582;2022-12-16T09:36:54;100830.56;;;-7.86;88.45
59767;BME280;46248;58.364;25.582;2022-12-16T09:40:36;100788.47;;;-8.06;88.12
59767;BME280;46248;58.364;25.582;2022-12-16T09:44:22;100822.19;;;-7.81;88.57
59767;BME280;46248;58.364;25.582;2022-12-16T09:48:11;100826.66;;;-7.73;88.17
59767;BME280;46248;58.364;25.582;2022-12-16T09:51:52;100835.25;;;-7.69;88.47
59767;BME280;46248;58.364;25.582;2022-12-16T09:55:39;100831.00;;;-7.69;88.00
59767;BME280;46248;58.364;25.582;2022-12-16T09:59:23;100836.91;;;-7.71;87.49
59767;BME280;46248;58.364;25.582;2022-12-16T10:03:12;100835.16;;;-7.72;87.43
59767;BME280;46248;58.364;25.582;2022-12-16T10:06:58;100829.19;;;-7.74;87.69
59767;BME280;46248;58.364;25.582;2022-12-16T10:10:46;100837.00;;;-7.67;87.78
59767;BME280;46248;58.364;25.582;2022-12-16T10:14:33;100840.38;;;-7.68;87.74
59767;BME280;46248;58.364;25.582;2022-12-16T10:18:26;100837.69;;;-7.72;87.47
59767;BME280;46248;58.364;25.582;2022-12-16T10:22:13;100841.16;;;-7.70;87.88
59767;BME280;46248;58.364;25.582;2022-12-16T10:26:00;100807.59;;;-7.89;87.77
59767;BME280;46248;58.364;25.582;2022-12-16T10:29:43;100841.31;;;-7.64;88.43
59767;BME280;46248;58.364;25.582;2022-12-16T10:33:29;100841.41;;;-7.61;88.25
59767;BME280;46248;58.364;25.582;2022-12-16T10:37:13;100832.22;;;-7.56;88.69
59767;BME280;46248;58.364;25.582;2022-12-16T10:40:54;100823.56;;;-7.63;88.30
59767;BME280;46248;58.364;25.582;2022-12-16T10:44:36;100851.81;;;-7.52;88.23
59767;BME280;46248;58.364;25.582;2022-12-16T10:48:22;100844.06;;;-7.56;88.15
59767;BME280;46248;58.364;25.582;2022-12-16T10:52:15;100850.13;;;-7.51;88.29
59767;BME280;46248;58.364;25.582;2022-12-16T10:56:02;100852.75;;;-7.50;88.16
59767;BME280;46248;58.364;25.582;2022-12-16T10:59:49;100826.66;;;-7.73;88.57
59767;BME280;46248;58.364;25.582;2022-12-16T11:03:33;100867.13;;;-7.50;88.40
59767;BME280;46248;58.364;25.582;2022-12-16T11:07:29;100875.66;;;-7.48;88.84
59767;BME280;46248;58.364;25.582;2022-12-16T11:11:20;100871.41;;;-7.49;88.40
59767;BME280;46248;58.364;25.582;2022-12-16T11:15:17;100879.94;;;-7.47;88.66
59767;BME280;46248;58.364;25.582;2022-12-16T11:19:02;100879.88;;;-7.49;88.62
59767;BME280;46248;58.364;25.582;2022-12-16T11:22:43;100885.75;;;-7.51;89.40
59767;BME280;46248;58.364;25.582;2022-12-16T11:26:51;100886.66;;;-7.49;89.53
59767;BME280;46248;58.364;25.582;2022-12-16T11:30:32;100888.25;;;-7.53;89.76
59767;BME280;46248;58.364;25.582;2022-12-16T11:34:12;100895.22;;;-7.47;90.61
59767;BME280;46248;58.364;25.582;2022-12-16T11:37:53;100882.38;;;-7.50;90.04
59767;BME280;46248;58.364;25.582;2022-12-16T11:41:37;100883.38;;;-7.45;90.11
59767;BME280;46248;58.364;25.582;2022-12-16T11:45:19;100897.09;;;-7.40;89.25
59767;BME280;46248;58.364;25.582;2022-12-16T11:49:00;100893.59;;;-7.44;89.87
59767;BME280;46248;58.364;25.582;2022-12-16T11:52:50;100897.78;;;-7.46;89.50
59767;BME280;46248;58.364;25.582;2022-12-16T11:56:34;100907.13;;;-7.45;89.76
59767;BME280;46248;58.364;25.582;2022-12-16T12:00:16;100911.41;;;-7.44;89.65
59767;BME280;46248;58.364;25.582;2022-12-16T12:03:57;100903.81;;;-7.42;90.12
59767;BME280;46248;58.364;25.582;2022-12-16T12:07:43;100912.38;;;-7.39;90.04
59767;BME280;46248;58.364;25.582;2022-12-16T12:11:28;100914.97;;;-7.37;90.02
59767;BME280;46248;58.364;25.582;2022-12-16T12:15:16;100921.75;;;-7.38;90.01
59767;BME280;46248;58.364;25.582;2022-12-16T12:19:06;100896.88;;;-7.48;90.19
59767;BME280;46248;58.364;25.582;2022-12-16T12:22:48;100921.75;;;-7.38;90.42
59767;BME280;46248;58.364;25.582;2022-12-16T12:26:30;100923.56;;;-7.33;90.53
59767;BME280;46248;58.364;25.582;2022-12-16T12:30:21;100904.63;;;-7.43;90.05
59767;BME280;46248;58.364;25.582;2022-12-16T12:34:06;100915.81;;;-7.38;90.08
59767;BME280;46248;58.364;25.582;2022-12-16T12:37:54;100928.56;;;-7.37;89.90
59767;BME280;46248;58.364;25.582;2022-12-16T12:41:52;100926.88;;;-7.36;90.52
59767;BME280;46248;58.364;25.582;2022-12-16T12:45:47;100932.00;;;-7.34;90.40
59767;BME280;46248;58.364;25.582;2022-12-16T12:49:35;100933.69;;;-7.35;90.49
59767;BME280;46248;58.364;25.582;2022-12-16T12:53:24;100933.72;;;-7.33;90.49
59767;BME280;46248;58.364;25.582;2022-12-16T12:57:10;100933.78;;;-7.32;90.66
59767;BME280;46248;58.364;25.582;2022-12-16T13:00:54;100925.25;;;-7.32;90.93
59767;BME280;46248;58.364;25.582;2022-12-16T13:04:34;100938.13;;;-7.28;90.74
59767;BME280;46248;58.364;25.582;2022-12-16T13:08:52;100927.78;;;-7.34;90.79
59767;BME280;46248;58.364;25.582;2022-12-16T13:12:33;100940.84;;;-7.22;90.92
59767;BME280;46248;58.364;25.582;2022-12-16T13:20:36;100949.25;;;-7.24;91.41
59767;BME280;46248;58.364;25.582;2022-12-16T13:24:19;100949.22;;;-7.26;91.29
59767;BME280;46248;58.364;25.582;2022-12-16T13:28:19;100950.25;;;-7.19;91.62
59767;BME280;46248;58.364;25.582;2022-12-16T13:32:00;100938.25;;;-7.23;90.89
59767;BME280;46248;58.364;25.582;2022-12-16T13:35:52;100936.34;;;-7.30;90.71
59767;BME280;46248;58.364;25.582;2022-12-16T13:39:32;100958.66;;;-7.22;90.42
59767;BME280;46248;58.364;25.582;2022-12-16T13:43:47;100952.47;;;-7.30;90.34
59767;BME280;46248;58.364;25.582;2022-12-16T13:47:32;100968.00;;;-7.21;90.44
59767;BME280;46248;58.364;25.582;2022-12-16T13:55:27;100968.66;;;-7.28;90.74
59767;BME280;46248;58.364;25.582;2022-12-16T13:59:14;100966.19;;;-7.25;90.39
59767;BME280;46248;58.364;25.582;2022-12-16T14:02:54;100975.69;;;-7.19;90.60
59767;BME280;46248;58.364;25.582;2022-12-16T14:06:36;100957.56;;;-7.30;90.53
59767;BME280;46248;58.364;25.582;2022-12-16T14:10:23;100976.50;;;-7.20;90.86
59767;BME280;46248;58.364;25.582;2022-12-16T14:14:08;100972.28;;;-7.20;90.77
59767;BME280;46248;58.364;25.582;2022-12-16T14:17:54;100979.94;;;-7.18;90.70
59767;BME280;46248;58.364;25.582;2022-12-16T14:21:41;100968.00;;;-7.21;90.43
59767;BME280;46248;58.364;25.582;2022-12-16T14:25:24;100986.13;;;-7.10;90.53
59767;BME280;46248;58.364;25.582;2022-12-16T14:29:15;100997.25;;;-7.06;90.61
59767;BME280;46248;58.364;25.582;2022-12-16T14:32:58;100975.00;;;-7.13;90.76
59767;BME280;46248;58.364;25.582;2022-12-16T14:36:38;100986.22;;;-7.07;90.35
59767;BME280;46248;58.364;25.582;2022-12-16T14:40:20;100993.84;;;-7.07;90.45
59767;BME280;46248;58.364;25.582;2022-12-16T14:44:01;101006.69;;;-7.02;90.39
59767;BME280;46248;58.364;25.582;2022-12-16T14:47:47;101010.16;;;-7.00;90.87
59767;BME280;46248;58.364;25.582;2022-12-16T14:51:28;101014.38;;;-7.01;90.27
59767;BME280;46248;58.364;25.582;2022-12-16T14:55:11;101009.22;;;-7.02;90.10
59767;BME280;46248;58.364;25.582;2022-12-16T14:59:06;101014.31;;;-7.02;90.20
59767;BME280;46248;58.364;25.582;2022-12-16T15:02:49;101014.41;;;-6.99;90.31
59767;BME280;46248;58.364;25.582;2022-12-16T15:06:31;100981.56;;;-7.22;90.25
59767;BME280;46248;58.364;25.582;2022-12-16T15:10:14;100994.44;;;-7.16;89.97
59767;BME280;46248;58.364;25.582;2022-12-16T15:13:56;101026.34;;;-6.98;90.17
59767;BME280;46248;58.364;25.582;2022-12-16T15:17:43;101029.75;;;-6.96;90.21
59767;BME280;46248;58.364;25.582;2022-12-16T15:21:27;101039.09;;;-6.97;89.96
59767;BME280;46248;58.364;25.582;2022-12-16T15:25:15;101038.16;;;-7.00;90.43
59767;BME280;46248;58.364;25.582;2022-12-16T15:28:56;101043.31;;;-6.99;90.38
59767;BME280;46248;58.364;25.582;2022-12-16T15:32:35;101045.88;;;-6.97;90.07
59767;BME280;46248;58.364;25.582;2022-12-16T15:36:27;101047.47;;;-7.01;90.46
59767;BME280;46248;58.364;25.582;2022-12-16T15:40:25;101051.78;;;-6.98;90.51
59767;BME280;46248;58.364;25.582;2022-12-16T15:44:05;101057.69;;;-6.99;90.49
59767;BME280;46248;58.364;25.582;2022-12-16T15:47:51;101062.78;;;-6.99;90.41
59767;BME280;46248;58.364;25.582;2022-12-16T15:51:42;101024.91;;;-7.19;90.48
59767;BME280;46248;58.364;25.582;2022-12-16T15:55:26;101062.88;;;-6.96;90.60
59767;BME280;46248;58.364;25.582;2022-12-16T15:59:14;101058.56;;;-6.99;90.79
59767;BME280;46248;58.364;25.582;2022-12-16T16:02:59;101068.00;;;-6.95;90.37
59767;BME280;46248;58.364;25.582;2022-12-16T16:06:36;101064.53;;;-6.97;90.66
59767;BME280;46248;58.364;25.582;2022-12-16T16:10:18;101061.13;;;-6.99;90.97
59767;BME280;46248;58.364;25.582;2022-12-16T16:13:59;101073.03;;;-6.96;91.41
59767;BME280;46248;58.364;25.582;2022-12-16T16:17:38;101086.75;;;-6.93;91.36
59767;BME280;46248;58.364;25.582;2022-12-16T16:21:18;101087.63;;;-6.91;91.29
59767;BME280;46248;58.364;25.582;2022-12-16T16:24:59;101093.66;;;-6.87;91.73
59767;BME280;46248;58.364;25.582;2022-12-16T16:28:39;101075.47;;;-7.01;91.44
59767;BME280;46248;58.364;25.582;2022-12-16T16:32:18;101108.16;;;-6.86;91.47
59767;BME280;46248;58.364;25.582;2022-12-16T16:35:58;101120.03;;;-6.86;91.49
59767;BME280;46248;58.364;25.582;2022-12-16T16:39:38;101120.81;;;-6.87;91.44
59767;BME280;46248;58.364;25.582;2022-12-16T16:43:20;101115.72;;;-6.87;92.05
59767;BME280;46248;58.364;25.582;2022-12-16T16:46:59;101119.13;;;-6.87;91.80
59767;BME280;46248;58.364;25.582;2022-12-16T16:50:39;101126.06;;;-6.83;91.85
59767;BME280;46248;58.364;25.582;2022-12-16T16:54:18;101128.69;;;-6.80;92.08
59767;BME280;46248;58.364;25.582;2022-12-16T16:57:58;101130.28;;;-6.83;92.44
59767;BME280;46248;58.364;25.582;2022-12-16T17:01:39;101137.97;;;-6.82;92.56
59767;BME280;46248;58.364;25.582;2022-12-16T17:05:19;101143.13;;;-6.80;92.38
59767;BME280;46248;58.364;25.582;2022-12-16T17:08:58;101144.88;;;-6.78;92.21
59767;BME280;46248;58.364;25.582;2022-12-16T17:12:37;101138.97;;;-6.77;92.72
59767;BME280;46248;58.364;25.582;2022-12-16T17:16:23;101139.75;;;-6.78;92.35
59767;BME280;46248;58.364;25.582;2022-12-16T17:20:06;101142.31;;;-6.78;93.05
59767;BME280;46248;58.364;25.582;2022-12-16T17:23:46;101141.50;;;-6.77;92.67
59767;BME280;46248;58.364;25.582;2022-12-16T17:27:24;101145.75;;;-6.77;92.73
59767;BME280;46248;58.364;25.582;2022-12-16T17:31:04;101161.06;;;-6.76;93.09
59767;BME280;46248;58.364;25.582;2022-12-16T17:34:43;101163.59;;;-6.76;92.73
59767;BME280;46248;58.364;25.582;2022-12-16T17:38:24;101174.72;;;-6.74;92.82
59767;BME280;46248;58.364;25.582;2022-12-16T17:42:03;101168.75;;;-6.74;92.96
59767;BME280;46248;58.364;25.582;2022-12-16T17:45:42;101172.19;;;-6.72;92.85
59767;BME280;46248;58.364;25.582;2022-12-16T17:49:22;101168.56;;;-6.80;93.09
59767;BME280;46248;58.364;25.582;2022-12-16T17:53:02;101188.38;;;-6.72;92.63
59767;BME280;46248;58.364;25.582;2022-12-16T17:56:44;101175.47;;;-6.76;92.70
59767;BME280;46248;58.364;25.582;2022-12-16T18:00:23;101174.72;;;-6.74;92.83
59767;BME280;46248;58.364;25.582;2022-12-16T18:04:03;101180.72;;;-6.72;92.90
59767;BME280;46248;58.364;25.582;2022-12-16T18:07:43;101193.56;;;-6.69;92.86
59767;BME280;46248;58.364;25.582;2022-12-16T18:11:23;101188.38;;;-6.72;92.85
59767;BME280;46248;58.364;25.582;2022-12-16T18:15:04;101197.81;;;-6.68;92.80
59767;BME280;46248;58.364;25.582;2022-12-16T18:18:47;101197.84;;;-6.66;93.21
59767;BME280;46248;58.364;25.582;2022-12-16T18:22:29;101203.75;;;-6.67;92.88
59767;BME280;46248;58.364;25.582;2022-12-16T18:26:09;101204.63;;;-6.66;92.95
59767;BME280;46248;58.364;25.582;2022-12-16T18:29:49;101204.81;;;-6.60;93.13
59767;BME280;46248;58.364;25.582;2022-12-16T18:33:30;101217.50;;;-6.62;93.53
59767;BME280;46248;58.364;25.582;2022-12-16T18:37:10;101188.88;;;-6.82;93.11
59767;BME280;46248;58.364;25.582;2022-12-16T18:40:49;101225.09;;;-6.63;92.98
59767;BME280;46248;58.364;25.582;2022-12-16T18:44:30;101216.59;;;-6.64;92.74
59767;BME280;46248;58.364;25.582;2022-12-16T18:48:09;101193.25;;;-6.78;93.13
59767;BME280;46248;58.364;25.582;2022-12-16T18:51:50;101216.69;;;-6.61;92.87
59767;BME280;46248;58.364;25.582;2022-12-16T18:55:30;101218.41;;;-6.60;93.27
59767;BME280;46248;58.364;25.582;2022-12-16T18:59:17;101225.19;;;-6.60;93.50
59767;BME280;46248;58.364;25.582;2022-12-16T19:02:56;101217.59;;;-6.59;92.90